Wauneta, NE

9:59 AM MDT on May 03, 2015 (GMT -0600)
Imperial Municipal | | Change Station
CLOSE
Current Station
Airport
Location: Imperial,
Elevation: 3274 ft
Nearby Weather Stations

Elev 3274 ft 40.51 °N, 101.62 °W | Updated 6 minutes ago

Clear
Clear
77 °F
Feels Like 77 °F
N
17
Wind Variable Wind from NW
Gusts 24 mph

Today
High -- | Low -- °F
--% Chance of Precip.
Yesterday
High -- | Low -- °F
Precip. -- in
5:42 AM 7:42 PM
Full, 100% visible
Pressure 29.75 in
Visibility 10.0 miles
Clouds Clear
Dew Point 40 °F
Humidity 26%
Rainfall 0.00 in
Snow Depth Not available.
UV 7 out of 12
Pollen 10.60 out of 12
Air Quality Not available.
Flu Activity Local Activity
METAR KIML 031553Z AUTO 32015G21KT 10SM CLR 25/04 A2984 RMK AO2 SLP072 T02500044

More Conditions Fewer Conditions

Pressure 29.75 in
Visibility 10.0 miles
Clouds Clear
Dew Point 40 °F
Humidity 26%
Rainfall 0.00 in
Snow Depth Not available.
UV 7 out of 12
Pollen 10.60 out of 12
Air Quality Not available.
Flu Activity Local Activity
METAR KIML 031553Z AUTO 32015G21KT 10SM CLR 25/04 A2984 RMK AO2 SLP072 T02500044

More Conditions Fewer Conditions

Nepal has a long way to go to dig out and rebuild from a devastating earthquake. We have teamed up with several charities and organizations to make contributing to the relief effort as easy as possible.
How you can help: Portlight Strategies | Red Cross

10-Day Weather Forecast

Almanac

Astronomy

May. 03, 2015 Rise Set
Actual Time
Civil Twilight
Nautical Twilight
Astronomical Twilight
Moon
Length of Visible Light
Length of Day
Tomorrow will be .
, % of the Moon is Illuminated

Today's Extremes

State Highs State Lows

Community

WunderPhotos

Upload Photos

1,818,256 photos uploaded!

WunderBlogs® & News

Nearby

Air Quality

  Air Quality AQ Index Pollutant
Not available.

Snow Depth

Station Depth Elevation

Earthquake Activity

City Distance Mag. Time & Date
Minimum magnitude displayed is 2.5.

Coastal Water Temperatures

Place Temperature

Stations

Nearby Weather Stations

Station Location Temp. Windchill Dew Point Humidity Wind Precip. Elev Updated Type